createdAt,value
2019-01-19T00:00:25.484Z,81.50
2019-01-19T00:03:30.174Z,81.47
2019-01-19T00:07:09.934Z,81.25
2019-01-19T00:10:38.876Z,81.84
2019-01-19T00:13:44.485Z,81.57
2019-01-19T00:16:57.872Z,81.03
2019-01-19T00:20:34.923Z,81.06
2019-01-19T00:23:43.284Z,81.89
2019-01-19T00:27:17.521Z,82.19
2019-01-19T00:30:28.788Z,81.82
2019-01-19T00:33:44.330Z,82.25
2019-01-19T00:37:16.563Z,82.50
2019-01-19T00:41:04.066Z,81.93
2019-01-19T00:44:00.159Z,81.63
2019-01-19T00:47:33.138Z,81.18
2019-01-19T00:50:51.261Z,81.28
2019-01-19T00:53:46.993Z,81.61
2019-01-19T00:56:36.188Z,81.74
2019-01-19T00:59:23.238Z,81.89
2019-01-19T01:02:43.342Z,81.74
2019-01-19T01:05:35.413Z,81.81
2019-01-19T01:08:50.615Z,81.92
2019-01-19T01:12:49.687Z,82.05
2019-01-19T01:16:04.170Z,81.80
2019-01-19T01:19:20.759Z,81.62
2019-01-19T01:22:49.337Z,81.98
2019-01-19T01:26:29.007Z,81.86
2019-01-19T01:29:54.977Z,82.05
2019-01-19T01:33:10.036Z,82.14
2019-01-19T01:36:57.073Z,82.00
2019-01-19T01:40:35.321Z,81.77
2019-01-19T01:43:50.333Z,81.96
2019-01-19T01:47:51.224Z,82.43
2019-01-19T01:50:38.673Z,82.29
2019-01-19T01:54:22.651Z,81.77
2019-01-19T01:56:55.490Z,81.67
2019-01-19T01:59:49.607Z,81.68
2019-01-19T02:03:26.753Z,81.76
2019-01-19T02:06:44.446Z,81.70
2019-01-19T02:10:37.569Z,81.68
2019-01-19T02:13:55.383Z,81.58
2019-01-19T02:17:45.530Z,81.09
2019-01-19T02:20:51.744Z,80.93
2019-01-19T02:24:08.471Z,80.94
2019-01-19T02:27:32.063Z,80.99
2019-01-19T02:31:06.002Z,81.42
2019-01-19T02:34:28.893Z,81.73
2019-01-19T02:37:35.178Z,81.53
2019-01-19T02:40:48.127Z,81.32
2019-01-19T02:44:17.076Z,81.48
2019-01-19T02:47:48.140Z,81.71
2019-01-19T02:50:56.481Z,81.40
2019-01-19T02:54:06.448Z,80.65
2019-01-19T02:57:11.699Z,80.74
2019-01-19T03:00:42.379Z,81.23
2019-01-19T03:03:30.011Z,81.34
2019-01-19T03:06:45.341Z,80.99
2019-01-19T03:09:59.541Z,81.10
2019-01-19T03:13:16.834Z,81.37
2019-01-19T03:17:01.228Z,81.21
2019-01-19T03:20:28.058Z,81.21
2019-01-19T03:23:49.097Z,81.29
2019-01-19T03:27:00.468Z,81.15
2019-01-19T03:30:17.649Z,81.57
2019-01-19T03:33:22.529Z,82.18
2019-01-19T03:36:31.912Z,81.96
2019-01-19T03:39:42.110Z,81.92
2019-01-19T03:42:47.207Z,81.45
2019-01-19T03:46:00.320Z,81.52
2019-01-19T03:49:40.546Z,81.72
2019-01-19T03:52:59.695Z,81.13
2019-01-19T03:56:24.432Z,80.73
2019-01-19T03:59:36.889Z,80.70
2019-01-19T04:02:49.879Z,80.77
2019-01-19T04:06:20.773Z,80.84
2019-01-19T04:09:59.304Z,81.39
2019-01-19T04:13:19.034Z,81.33
2019-01-19T04:17:01.688Z,81.28
2019-01-19T04:20:21.629Z,81.70
2019-01-19T04:22:59.861Z,81.49
2019-01-19T04:25:59.030Z,81.74
2019-01-19T04:28:30.948Z,81.85
2019-01-19T04:31:02.817Z,82.15
2019-01-19T04:33:34.594Z,81.97
2019-01-19T04:36:07.491Z,82.04
2019-01-19T04:38:41.101Z,81.76
2019-01-19T04:41:12.865Z,81.53
2019-01-19T04:43:44.646Z,81.13
2019-01-19T04:46:16.445Z,80.45
2019-01-19T04:48:48.689Z,80.79
2019-01-19T04:51:20.485Z,80.20
2019-01-19T04:53:52.205Z,80.25
2019-01-19T04:56:24.006Z,80.26
2019-01-19T04:58:55.785Z,79.68
2019-01-19T05:01:27.522Z,79.91
2019-01-19T05:03:59.555Z,79.68
2019-01-19T05:06:31.284Z,80.04
2019-01-19T05:09:02.998Z,80.30
2019-01-19T05:11:34.748Z,80.37
2019-01-19T05:14:06.827Z,80.16
2019-01-19T05:16:38.566Z,79.64
2019-01-19T05:19:10.525Z,79.69
2019-01-19T05:21:42.262Z,80.01
2019-01-19T05:24:13.958Z,80.13
2019-01-19T05:26:46.076Z,80.24
2019-01-19T05:29:17.995Z,80.23
2019-01-19T05:31:49.803Z,79.89
2019-01-19T05:34:21.597Z,80.00
2019-01-19T05:36:53.392Z,79.85
2019-01-19T05:39:25.112Z,79.56
2019-01-19T05:41:56.969Z,79.26
2019-01-19T05:44:28.690Z,78.81
2019-01-19T05:47:00.420Z,78.82
2019-01-19T05:49:32.139Z,78.68
2019-01-19T05:52:03.940Z,79.19
2019-01-19T05:54:35.635Z,79.01
2019-01-19T05:57:07.444Z,79.03
2019-01-19T05:59:39.398Z,78.81
2019-01-19T06:02:11.645Z,79.46
2019-01-19T06:04:43.790Z,79.50
2019-01-19T06:07:15.948Z,79.78
2019-01-19T06:09:47.767Z,79.96
2019-01-19T06:12:19.578Z,79.97
2019-01-19T06:14:51.437Z,80.27
2019-01-19T06:17:23.466Z,79.88
2019-01-19T06:19:55.613Z,80.22
2019-01-19T06:22:27.623Z,80.68
2019-01-19T06:24:59.392Z,80.61
2019-01-19T06:27:31.237Z,80.79
2019-01-19T06:30:03.289Z,80.81
2019-01-19T06:32:35.092Z,80.87
2019-01-19T06:35:08.411Z,80.91
2019-01-19T06:37:40.372Z,80.88
2019-01-19T06:40:13.713Z,80.87
2019-01-19T06:42:45.620Z,80.65
2019-01-19T06:45:23.696Z,80.43
2019-01-19T06:47:55.693Z,80.42
2019-01-19T06:50:27.502Z,79.99
2019-01-19T06:53:00.324Z,80.07
2019-01-19T06:55:34.806Z,79.73
2019-01-19T06:58:06.904Z,80.08
2019-01-19T07:00:38.754Z,80.21
2019-01-19T07:03:10.534Z,80.34
2019-01-19T07:05:42.358Z,80.97
2019-01-19T07:08:14.265Z,80.80
2019-01-19T07:10:46.115Z,81.19
2019-01-19T07:13:17.921Z,81.49
2019-01-19T07:15:49.631Z,81.75
2019-01-19T07:18:21.363Z,81.74
2019-01-19T07:20:53.353Z,81.68
2019-01-19T07:23:25.155Z,82.55
2019-01-19T07:25:56.950Z,82.67
2019-01-19T07:28:28.683Z,82.91
2019-01-19T07:31:00.396Z,82.96
2019-01-19T07:33:32.214Z,83.08
2019-01-19T07:36:04.187Z,83.59
2019-01-19T07:38:35.904Z,83.50
2019-01-19T07:41:07.766Z,82.92
2019-01-19T07:43:39.835Z,82.99
2019-01-19T07:46:12.497Z,82.38
2019-01-19T07:48:44.212Z,82.11
2019-01-19T07:51:15.928Z,82.47
2019-01-19T07:53:47.719Z,82.58
2019-01-19T07:56:19.728Z,82.72
2019-01-19T07:58:51.448Z,82.84
2019-01-19T08:01:23.249Z,82.67
2019-01-19T08:03:54.978Z,82.45
2019-01-19T08:06:26.773Z,82.55
2019-01-19T08:09:00.138Z,81.90
2019-01-19T08:11:31.854Z,81.95
2019-01-19T08:14:05.402Z,81.68
2019-01-19T08:16:37.668Z,81.57
2019-01-19T08:19:10.017Z,81.10
2019-01-19T08:21:41.876Z,80.78
2019-01-19T08:24:13.851Z,80.32
2019-01-19T08:26:45.558Z,80.12
2019-01-19T08:29:18.429Z,79.87
2019-01-19T08:31:50.345Z,80.65
2019-01-19T08:34:22.448Z,80.13
2019-01-19T08:36:54.438Z,79.80
2019-01-19T08:39:27.190Z,79.85
2019-01-19T08:41:59.188Z,79.38
2019-01-19T08:44:31.022Z,78.95
2019-01-19T08:47:02.736Z,78.72
2019-01-19T08:49:34.599Z,78.75
2019-01-19T08:52:06.453Z,77.35
2019-01-19T08:54:38.196Z,77.40
2019-01-19T08:57:10.142Z,77.29
2019-01-19T08:59:41.862Z,77.35
2019-01-19T09:02:13.582Z,77.36
2019-01-19T09:04:45.290Z,77.20
2019-01-19T09:07:17.146Z,75.91
2019-01-19T09:09:48.861Z,77.06
2019-01-19T09:12:20.716Z,76.51
2019-01-19T09:14:52.429Z,76.71
2019-01-19T09:17:24.134Z,77.15
2019-01-19T09:19:55.842Z,75.76
2019-01-19T09:22:27.552Z,76.29
2019-01-19T09:24:59.349Z,76.09
2019-01-19T09:27:31.150Z,75.48
2019-01-19T09:30:02.885Z,75.39
2019-01-19T09:32:34.732Z,75.51
2019-01-19T09:35:07.082Z,75.76
2019-01-19T09:37:40.893Z,75.69
2019-01-19T09:40:13.917Z,74.91
2019-01-19T09:42:46.059Z,74.91
2019-01-19T09:45:18.046Z,74.65
2019-01-19T09:47:49.896Z,74.53
2019-01-19T09:50:21.774Z,73.85
2019-01-19T09:52:53.582Z,74.53
2019-01-19T09:55:25.377Z,74.51
2019-01-19T09:57:57.220Z,74.13
2019-01-19T10:00:35.493Z,73.42
2019-01-19T10:03:02.920Z,74.21
2019-01-19T10:05:34.881Z,73.90
2019-01-19T10:08:06.726Z,73.84
2019-01-19T10:10:38.466Z,72.36
2019-01-19T10:13:10.164Z,73.46
2019-01-19T10:15:41.867Z,72.14
2019-01-19T10:18:13.738Z,72.74
2019-01-19T10:20:45.462Z,72.66
2019-01-19T10:23:17.410Z,72.54
2019-01-19T10:25:49.134Z,73.22
2019-01-19T10:28:20.918Z,71.00
2019-01-19T10:30:52.783Z,70.58
2019-01-19T10:33:24.545Z,69.97
2019-01-19T10:35:56.324Z,69.64
2019-01-19T10:38:28.090Z,70.05
2019-01-19T10:40:59.807Z,70.52
2019-01-19T10:43:31.507Z,70.48
2019-01-19T10:46:03.287Z,70.95
2019-01-19T10:48:35.060Z,69.51
2019-01-19T10:51:06.778Z,69.01
2019-01-19T10:53:38.499Z,70.08
2019-01-19T10:56:10.292Z,68.87
2019-01-19T10:58:42.310Z,68.64
2019-01-19T11:01:14.246Z,68.66
2019-01-19T11:03:46.032Z,68.67
2019-01-19T11:06:17.738Z,67.69
2019-01-19T11:08:49.578Z,68.83
2019-01-19T11:11:21.431Z,66.62
2019-01-19T11:13:53.123Z,66.30
2019-01-19T11:16:24.843Z,67.31
2019-01-19T11:18:56.536Z,67.64
2019-01-19T11:21:28.242Z,64.22
2019-01-19T11:23:59.930Z,64.72
2019-01-19T11:26:31.642Z,65.23
2019-01-19T11:29:03.332Z,63.36
2019-01-19T11:31:35.114Z,64.60
2019-01-19T11:34:06.977Z,62.74
2019-01-19T11:36:38.760Z,63.91
2019-01-19T11:39:10.537Z,63.60
2019-01-19T11:41:42.264Z,63.23
2019-01-19T11:44:14.030Z,63.50
2019-01-19T11:46:45.821Z,63.15
2019-01-19T11:49:17.516Z,62.48
2019-01-19T11:51:49.371Z,63.52
2019-01-19T11:54:21.154Z,63.46
2019-01-19T11:56:52.934Z,63.33
2019-01-19T11:59:24.636Z,64.51
2019-01-19T12:01:56.424Z,62.75
2019-01-19T12:04:28.124Z,63.94
2019-01-19T12:06:59.910Z,63.25
2019-01-19T12:09:31.612Z,63.08
2019-01-19T12:12:03.319Z,60.30
2019-01-19T12:14:35.009Z,61.58
2019-01-19T12:17:06.862Z,61.14
2019-01-19T12:19:38.614Z,59.87
2019-01-19T12:22:10.478Z,61.83
2019-01-19T12:24:42.497Z,61.79
2019-01-19T12:27:14.204Z,60.68
2019-01-19T12:29:45.909Z,60.15
2019-01-19T12:32:18.239Z,59.42
2019-01-19T12:34:49.991Z,58.77
2019-01-19T12:37:21.844Z,59.19
2019-01-19T12:39:53.862Z,60.18
2019-01-19T12:42:25.561Z,60.27
2019-01-19T12:44:57.249Z,59.71
2019-01-19T12:47:29.057Z,60.12
2019-01-19T12:50:02.017Z,56.82
2019-01-19T12:52:33.962Z,58.35
2019-01-19T12:55:06.529Z,58.58
2019-01-19T12:57:38.415Z,58.28
2019-01-19T13:00:14.632Z,55.61
2019-01-19T13:02:46.491Z,56.00
2019-01-19T13:05:34.783Z,57.29
2019-01-19T13:08:08.538Z,59.46
2019-01-19T13:10:49.556Z,57.31
2019-01-19T13:13:28.043Z,57.22
2019-01-19T13:17:09.537Z,56.08
2019-01-19T13:20:06.471Z,57.94
2019-01-19T13:23:53.336Z,58.02
2019-01-19T13:27:09.774Z,54.95
2019-01-19T13:30:32.137Z,54.91
2019-01-19T13:33:36.704Z,56.11
2019-01-19T13:36:58.986Z,54.58
2019-01-19T13:40:17.139Z,54.78
2019-01-19T13:43:56.043Z,53.28
2019-01-19T13:47:19.146Z,54.00
2019-01-19T13:50:39.215Z,55.90
2019-01-19T13:54:38.483Z,54.90
2019-01-19T13:58:09.644Z,54.72
2019-01-19T14:01:37.523Z,53.90
2019-01-19T14:05:16.109Z,53.91
2019-01-19T14:09:04.265Z,53.70
2019-01-19T14:12:36.049Z,54.26
2019-01-19T14:15:41.446Z,54.72
2019-01-19T14:19:02.124Z,53.82
2019-01-19T14:22:03.238Z,54.14
2019-01-19T14:25:10.545Z,56.51
2019-01-19T14:28:21.199Z,52.73
2019-01-19T14:32:02.704Z,53.96
2019-01-19T14:35:18.503Z,52.79
2019-01-19T14:38:40.357Z,52.62
2019-01-19T14:42:05.100Z,52.10
2019-01-19T14:45:45.574Z,54.57
2019-01-19T14:49:08.381Z,53.73
2019-01-19T14:52:44.654Z,54.42
2019-01-19T14:55:58.838Z,53.43
2019-01-19T14:58:59.568Z,54.14
2019-01-19T15:02:44.033Z,54.06
2019-01-19T15:06:20.224Z,54.70
2019-01-19T15:10:02.867Z,54.38
2019-01-19T15:13:10.780Z,53.27
2019-01-19T15:16:30.331Z,52.23
2019-01-19T15:19:46.726Z,51.27
2019-01-19T15:23:47.197Z,54.29
2019-01-19T15:27:22.416Z,55.34
2019-01-19T15:30:55.076Z,56.78
2019-01-19T15:34:27.566Z,57.38
2019-01-19T15:37:25.340Z,57.89
2019-01-19T15:40:56.161Z,58.78
2019-01-19T15:44:27.628Z,59.24
2019-01-19T15:48:04.380Z,59.75
2019-01-19T15:51:36.856Z,60.78
2019-01-19T15:55:24.995Z,61.77
2019-01-19T15:58:48.797Z,61.36
2019-01-19T16:02:15.573Z,62.58
2019-01-19T16:05:50.484Z,61.96
2019-01-19T16:08:57.145Z,63.15
2019-01-19T16:12:23.390Z,63.39
2019-01-19T16:15:23.805Z,63.94
2019-01-19T16:18:50.189Z,64.16
2019-01-19T16:22:28.362Z,64.65
2019-01-19T16:25:53.754Z,65.57
2019-01-19T16:29:28.334Z,65.95
2019-01-19T16:32:53.974Z,66.22
2019-01-19T16:36:10.512Z,66.17
2019-01-19T16:39:32.230Z,66.04
2019-01-19T16:42:42.480Z,66.77
2019-01-19T16:46:25.151Z,65.99
2019-01-19T16:49:31.561Z,66.50
2019-01-19T16:52:26.354Z,67.67
2019-01-19T16:55:44.518Z,67.42
2019-01-19T16:59:04.294Z,68.09
2019-01-19T17:02:28.690Z,68.04
2019-01-19T17:05:39.348Z,68.95
2019-01-19T17:08:55.835Z,69.18
2019-01-19T17:12:15.703Z,70.08
2019-01-19T17:15:28.888Z,70.50
2019-01-19T17:18:55.608Z,71.26
2019-01-19T17:22:18.494Z,71.37
2019-01-19T17:26:02.641Z,71.44
2019-01-19T17:29:16.777Z,72.37
2019-01-19T17:32:22.632Z,72.56
2019-01-19T17:35:56.451Z,73.10
2019-01-19T17:39:06.619Z,73.39
2019-01-19T17:42:28.258Z,73.29
2019-01-19T17:46:15.742Z,73.29
2019-01-19T17:49:58.889Z,73.45
2019-01-19T17:53:16.887Z,73.48
2019-01-19T17:56:39.306Z,73.65
2019-01-19T17:59:57.758Z,74.16
2019-01-19T18:03:05.252Z,74.25
2019-01-19T18:06:26.385Z,74.43
2019-01-19T18:10:08.049Z,74.46
2019-01-19T18:13:26.337Z,74.29
2019-01-19T18:16:37.341Z,74.56
2019-01-19T18:19:55.017Z,74.10
2019-01-19T18:23:31.558Z,74.74
2019-01-19T18:26:42.891Z,75.06
2019-01-19T18:30:09.999Z,75.06
2019-01-19T18:33:06.321Z,75.49
2019-01-19T18:36:47.565Z,75.26
2019-01-19T18:40:43.529Z,75.75
2019-01-19T18:44:19.435Z,75.99
2019-01-19T18:47:32.560Z,75.90
2019-01-19T18:51:15.500Z,75.70
2019-01-19T18:54:36.950Z,75.64
2019-01-19T18:58:23.791Z,75.47
2019-01-19T19:01:35.413Z,75.08
2019-01-19T19:04:52.787Z,75.51
2019-01-19T19:08:20.623Z,75.26
2019-01-19T19:11:47.988Z,75.69
2019-01-19T19:15:16.663Z,75.43
2019-01-19T19:18:31.866Z,76.03
2019-01-19T19:21:26.069Z,76.13
2019-01-19T19:24:55.386Z,76.81
2019-01-19T19:28:12.607Z,76.78
2019-01-19T19:31:13.590Z,77.45
2019-01-19T19:34:16.841Z,77.55
2019-01-19T19:37:25.635Z,77.16
2019-01-19T19:40:46.358Z,77.22
2019-01-19T19:43:28.323Z,77.00
2019-01-19T19:46:51.351Z,77.29
2019-01-19T19:50:07.787Z,77.47
2019-01-19T19:52:41.555Z,77.17
2019-01-19T19:55:11.330Z,77.37
2019-01-19T19:57:44.979Z,77.57
2019-01-19T20:00:17.024Z,77.07
2019-01-19T20:02:49.441Z,78.68
2019-01-19T20:05:22.232Z,78.81
2019-01-19T20:07:54.453Z,77.53
2019-01-19T20:10:26.310Z,77.42
2019-01-19T20:12:58.042Z,77.22
2019-01-19T20:15:30.177Z,76.73
2019-01-19T20:18:04.860Z,76.93
2019-01-19T20:20:36.612Z,76.83
2019-01-19T20:23:08.326Z,76.46
2019-01-19T20:25:40.082Z,75.47
2019-01-19T20:28:12.148Z,76.14
2019-01-19T20:30:44.136Z,77.97
2019-01-19T20:33:16.176Z,78.53
2019-01-19T20:35:47.998Z,77.62
2019-01-19T20:38:19.880Z,78.24
2019-01-19T20:40:51.933Z,78.01
2019-01-19T20:43:23.912Z,76.82
2019-01-19T20:45:55.748Z,76.94
2019-01-19T20:48:27.553Z,77.83
2019-01-19T20:50:59.602Z,77.17
2019-01-19T20:53:31.402Z,77.42
2019-01-19T20:56:03.280Z,77.39
2019-01-19T20:58:35.006Z,77.34
2019-01-19T21:01:06.902Z,77.68
2019-01-19T21:03:38.716Z,77.65
2019-01-19T21:06:10.916Z,77.45
2019-01-19T21:08:42.639Z,77.94
2019-01-19T21:11:14.398Z,77.98
2019-01-19T21:13:46.201Z,77.84
2019-01-19T21:16:17.942Z,77.18
2019-01-19T21:18:49.664Z,77.97
2019-01-19T21:21:21.470Z,78.08
2019-01-19T21:23:53.192Z,78.15
2019-01-19T21:26:24.931Z,78.08
2019-01-19T21:28:56.764Z,77.72
2019-01-19T21:31:28.603Z,77.68
2019-01-19T21:34:00.409Z,78.12
2019-01-19T21:36:32.159Z,77.81
2019-01-19T21:39:05.940Z,77.51
2019-01-19T21:41:37.754Z,77.99
2019-01-19T21:44:10.155Z,77.24
2019-01-19T21:46:41.892Z,77.18
2019-01-19T21:49:13.618Z,78.24
2019-01-19T21:51:45.351Z,77.22
2019-01-19T21:54:17.148Z,78.30
2019-01-19T21:56:49.121Z,77.60
2019-01-19T21:59:20.842Z,77.57
2019-01-19T22:01:52.730Z,77.81
2019-01-19T22:04:24.458Z,78.41
2019-01-19T22:06:56.596Z,78.67
2019-01-19T22:09:28.322Z,77.98
2019-01-19T22:12:00.056Z,78.15
2019-01-19T22:14:32.031Z,78.03
2019-01-19T22:17:03.764Z,77.51
2019-01-19T22:19:35.487Z,77.27
2019-01-19T22:22:07.371Z,77.95
2019-01-19T22:24:39.112Z,78.14
2019-01-19T22:27:12.512Z,78.32
2019-01-19T22:29:44.311Z,78.31
2019-01-19T22:32:16.047Z,78.30
2019-01-19T22:34:47.764Z,78.37
2019-01-19T22:37:20.465Z,78.54
2019-01-19T22:39:52.351Z,78.48
2019-01-19T22:42:24.084Z,78.00
2019-01-19T22:44:55.803Z,79.13
2019-01-19T22:47:27.541Z,78.76
2019-01-19T22:49:59.275Z,78.26
2019-01-19T22:52:31.035Z,77.88
2019-01-19T22:55:02.756Z,77.10
2019-01-19T22:57:34.818Z,77.42
2019-01-19T23:00:24.531Z,77.94
2019-01-19T23:02:57.954Z,77.43
2019-01-19T23:05:29.860Z,78.12
2019-01-19T23:08:01.589Z,77.76
2019-01-19T23:10:33.411Z,78.72
2019-01-19T23:13:05.248Z,79.11
2019-01-19T23:15:36.980Z,79.48
2019-01-19T23:18:09.418Z,79.43
2019-01-19T23:20:41.394Z,78.79
2019-01-19T23:23:13.134Z,79.66
2019-01-19T23:25:45.272Z,79.14
2019-01-19T23:28:17.004Z,78.92
2019-01-19T23:30:48.813Z,79.58
2019-01-19T23:33:20.542Z,79.28
2019-01-19T23:35:52.261Z,79.39
2019-01-19T23:38:24.079Z,79.42
2019-01-19T23:40:55.873Z,79.13
2019-01-19T23:43:27.678Z,79.40
2019-01-19T23:45:59.551Z,79.27
2019-01-19T23:48:31.533Z,79.41
2019-01-19T23:51:03.692Z,80.01
2019-01-19T23:53:35.436Z,80.00
2019-01-19T23:56:07.245Z,80.34
2019-01-19T23:58:38.975Z,79.79
